Time;durP1;ratioP1;P1;durP2;ratioP2;P2;SDS_P1;SDS_P2;PMS_P1;PMS_P2;Temp;Humidity;BMP_temperature;BMP_pressure;BME280_temperature;BME280_humidity;BME280_pressure;Samples;Min_cycle;Max_cycle;Signal;HPM_P1;HPM_P2
2022/02/21 00:00:16;;;;;;;8.17;1.40;;;;;;;5.78;100.00;97221.69;7418564;19;20980;-53
2022/02/21 00:02:45;;;;;;;5.50;1.47;;;;;;;5.65;100.00;97241.25;7411886;19;20445;-52
2022/02/21 00:07:53;;;;;;;5.60;1.03;;;;;;;5.51;100.00;97230.94;7422659;19;20510;-55
2022/02/21 00:10:24;;;;;;;3.77;0.77;;;;;;;5.42;100.00;97228.34;7424616;19;20427;-50
2022/02/21 00:12:53;;;;;;;5.77;1.53;;;;;;;5.39;100.00;97247.06;7422367;19;20423;-52
2022/02/21 00:15:23;;;;;;;6.97;1.00;;;;;;;5.35;100.00;97264.09;7424279;19;20413;-54
2022/02/21 00:17:52;;;;;;;5.03;1.37;;;;;;;5.35;100.00;97258.13;7420145;19;20436;-53
2022/02/21 00:20:20;;;;;;;5.20;1.07;;;;;;;5.19;100.00;97263.13;7419371;19;20504;-54
2022/02/21 00:22:48;;;;;;;8.70;1.43;;;;;;;5.04;100.00;97258.75;7413150;19;20426;-56
2022/02/21 00:27:56;;;;;;;3.63;0.80;;;;;;;4.89;100.00;97246.72;7419855;19;21015;-49
2022/02/21 00:30:24;;;;;;;4.57;0.97;;;;;;;4.83;100.00;97279.88;7421292;19;20446;-51
2022/02/21 00:32:53;;;;;;;3.80;0.60;;;;;;;4.75;100.00;97281.47;7419458;19;20414;-51
2022/02/21 00:35:21;;;;;;;3.53;0.80;;;;;;;4.70;100.00;97279.75;7421630;19;20378;-54
2022/02/21 00:37:49;;;;;;;4.53;0.60;;;;;;;4.70;100.00;97302.75;7418720;19;20434;-52
2022/02/21 00:40:17;;;;;;;6.30;0.70;;;;;;;4.66;100.00;97303.53;7418307;19;20423;-52
2022/02/21 00:42:45;;;;;;;3.27;0.67;;;;;;;4.62;100.00;97278.84;7412942;19;20398;-47
2022/02/21 00:49:12;;;;;;;1.47;0.80;;;;;;;4.43;100.00;97260.78;7419350;19;20494;-54
2022/02/21 00:51:40;;;;;;;4.60;1.33;;;;;;;4.33;100.00;97289.59;7424226;19;20384;-49
2022/02/21 00:54:08;;;;;;;5.03;0.50;;;;;;;4.22;100.00;97280.94;7422804;19;20425;-54
2022/02/21 00:56:36;;;;;;;4.80;0.63;;;;;;;4.14;100.00;97258.75;7422879;19;20412;-58
2022/02/21 00:59:04;;;;;;;3.10;0.60;;;;;;;4.13;100.00;97256.19;7418770;19;20425;-54
2022/02/21 01:01:33;;;;;;;1.40;0.50;;;;;;;4.12;100.00;97288.50;7422663;19;20403;-54
2022/02/21 01:04:01;;;;;;;1.63;0.70;;;;;;;4.09;100.00;97290.16;7415141;19;20410;-51
2022/02/21 01:06:31;;;;;;;2.93;0.73;;;;;;;4.06;100.00;97275.69;7413961;19;20391;-62
2022/02/21 01:14:04;;;;;;;2.80;0.63;;;;;;;4.03;100.00;97245.00;7421165;19;20478;-51
2022/02/21 01:16:32;;;;;;;1.63;0.50;;;;;;;4.03;100.00;97284.16;7424377;19;20960;-51
2022/02/21 01:19:00;;;;;;;1.67;0.40;;;;;;;4.03;100.00;97302.00;7420759;19;20407;-55
2022/02/21 01:21:29;;;;;;;4.00;0.73;;;;;;;4.00;100.00;97266.22;7422701;19;20397;-57
2022/02/21 01:23:57;;;;;;;1.87;0.50;;;;;;;4.01;100.00;97247.53;7419348;19;20775;-55
2022/02/21 01:26:25;;;;;;;1.73;0.50;;;;;;;4.04;100.00;97251.81;7421888;19;20505;-50
2022/02/21 01:28:54;;;;;;;1.80;0.60;;;;;;;4.05;100.00;97244.19;7411608;19;20409;-51
2022/02/21 01:31:25;;;;;;;2.33;0.67;;;;;;;4.12;100.00;97264.69;7412463;19;20413;-50
2022/02/21 01:38:57;;;;;;;2.07;0.67;;;;;;;4.16;100.00;97226.44;7420985;19;20501;-50
2022/02/21 01:41:25;;;;;;;1.20;0.40;;;;;;;4.14;100.00;97256.19;7426698;19;20422;-54
2022/02/21 01:44:03;;;;;;;2.77;0.80;;;;;;;4.12;100.00;97278.31;7421286;19;20442;-52
2022/02/21 01:46:32;;;;;;;1.57;0.90;;;;;;;4.05;100.00;97292.66;7422915;19;20383;-53
2022/02/21 01:49:00;;;;;;;1.60;0.60;;;;;;;3.91;100.00;97297.59;7419303;19;20411;-56
2022/02/21 01:51:30;;;;;;;3.13;0.50;;;;;;;3.83;100.00;97304.28;7420021;19;20391;-55
2022/02/21 01:54:00;;;;;;;2.43;0.90;;;;;;;3.70;100.00;97302.41;7410920;19;20399;-50
2022/02/21 01:59:09;;;;;;;3.83;0.70;;;;;;;3.36;100.00;97288.34;7422105;19;21030;-52
2022/02/21 02:01:37;;;;;;;6.60;1.20;;;;;;;3.33;100.00;97323.97;7425072;19;20824;-53
2022/02/21 02:04:05;;;;;;;5.10;0.90;;;;;;;3.26;100.00;97347.66;7421225;19;20418;-51
2022/02/21 02:06:35;;;;;;;5.90;1.23;;;;;;;3.19;100.00;97366.22;7422386;19;20381;-55
2022/02/21 02:09:03;;;;;;;1.90;0.80;;;;;;;3.08;100.00;97374.53;7418721;19;20421;-52
2022/02/21 02:11:34;;;;;;;1.60;0.80;;;;;;;2.99;100.00;97378.59;7418695;19;20390;-56
2022/02/21 02:14:02;;;;;;;2.90;0.70;;;;;;;2.91;100.00;97393.72;7411271;19;20407;-52
2022/02/21 02:19:09;;;;;;;2.43;0.87;;;;;;;2.80;100.00;97368.06;7421535;19;20873;-52
2022/02/21 02:21:38;;;;;;;4.50;0.80;;;;;;;2.67;100.00;97379.72;7423906;19;20992;-52
2022/02/21 02:24:09;;;;;;;5.00;0.90;;;;;;;2.65;100.00;97399.19;7421697;19;20474;-49
2022/02/21 02:26:41;;;;;;;3.77;0.50;;;;;;;2.61;100.00;97397.44;7422787;19;20375;-50
2022/02/21 02:29:09;;;;;;;6.63;0.77;;;;;;;2.60;100.00;97406.75;7417368;19;20410;-51
2022/02/21 02:31:37;;;;;;;3.33;1.03;;;;;;;2.64;100.00;97411.06;7418988;19;20383;-53
2022/02/21 02:34:05;;;;;;;3.00;1.03;;;;;;;2.68;100.00;97405.19;7413405;19;20437;-52
2022/02/21 02:39:14;;;;;;;6.10;1.47;;;;;;;2.76;100.00;97392.63;7418112;19;20502;-52
2022/02/21 02:41:42;;;;;;;9.60;1.97;;;;;;;2.83;100.00;97411.44;7425754;19;20393;-54
2022/02/21 02:44:11;;;;;;;9.40;1.43;;;;;;;2.87;100.00;97420.84;7421145;19;20414;-48
2022/02/21 02:46:39;;;;;;;17.73;2.47;;;;;;;2.89;100.00;97413.22;7423799;19;20389;-52
2022/02/21 02:49:07;;;;;;;7.30;2.60;;;;;;;2.96;100.00;97404.88;7415392;19;20410;-53
2022/02/21 02:51:35;;;;;;;15.23;1.80;;;;;;;2.98;100.00;97433.78;7419951;19;20729;-52
2022/02/21 02:54:08;;;;;;;13.00;2.40;;;;;;;2.99;100.00;97455.88;7418401;19;20442;-48
2022/02/21 02:59:15;;;;;;;22.27;2.90;;;;;;;2.97;100.00;97444.78;7419482;19;20494;-52
2022/02/21 03:01:43;;;;;;;12.33;2.67;;;;;;;3.02;100.00;97455.09;7425742;19;20405;-54
2022/02/21 03:04:11;;;;;;;16.00;2.17;;;;;;;3.03;100.00;97462.72;7421982;19;20753;-51
2022/02/21 03:06:39;;;;;;;16.57;3.47;;;;;;;3.05;100.00;97448.34;7424565;19;20383;-52
2022/02/21 03:09:07;;;;;;;26.13;3.63;;;;;;;3.07;100.00;97446.69;7418790;19;20414;-50
2022/02/21 03:11:36;;;;;;;5.50;1.27;;;;;;;3.05;100.00;97450.91;7421003;19;20733;-57
2022/02/21 03:14:05;;;;;;;9.37;1.60;;;;;;;3.08;100.00;97450.09;7417527;19;20789;-54
2022/02/21 03:20:30;;;;;;;20.37;2.67;;;;;;;3.01;100.00;97428.75;7423636;19;20447;-51
2022/02/21 03:22:58;;;;;;;11.00;3.37;;;;;;;3.00;100.00;97418.50;7423685;19;20410;-51
2022/02/21 03:25:26;;;;;;;23.73;3.33;;;;;;;2.95;100.00;97443.91;7424874;19;20913;-52
2022/02/21 03:27:56;;;;;;;18.63;4.10;;;;;;;2.93;100.00;97420.09;7420647;19;20407;-52
2022/02/21 03:30:24;;;;;;;26.93;4.53;;;;;;;2.94;100.00;97406.53;7421187;19;20790;-49
2022/02/21 03:32:53;;;;;;;10.83;3.40;;;;;;;2.92;100.00;97426.03;7416317;19;20399;-50
2022/02/21 03:35:22;;;;;;;11.90;2.07;;;;;;;2.91;100.00;97421.75;7416881;19;21214;-53
2022/02/21 03:40:29;;;;;;;24.57;4.03;;;;;;;2.70;100.00;97429.03;7425151;19;20794;-51
2022/02/21 03:42:58;;;;;;;19.27;3.07;;;;;;;2.52;100.00;97418.47;7420426;19;20407;-54
2022/02/21 03:45:26;;;;;;;18.13;3.60;;;;;;;2.35;100.00;97481.75;7425290;19;20370;-56
2022/02/21 03:47:54;;;;;;;13.90;2.60;;;;;;;2.24;100.00;97462.00;7420087;19;20406;-52
2022/02/21 03:50:23;;;;;;;26.67;4.50;;;;;;;2.09;100.00;97479.44;7420768;19;20429;-52
2022/02/21 03:52:52;;;;;;;25.30;3.53;;;;;;;2.03;100.00;97477.63;7416751;19;20414;-50
2022/02/21 03:55:20;;;;;;;16.53;3.10;;;;;;;1.98;100.00;97492.78;7416818;19;20376;-50
2022/02/21 04:00:28;;;;;;;24.40;3.80;;;;;;;1.98;100.00;97477.53;7425531;19;20459;-52
2022/02/21 04:02:56;;;;;;;18.17;2.40;;;;;;;1.99;100.00;97497.03;7421990;19;20954;-51
2022/02/21 04:05:24;;;;;;;39.83;3.80;;;;;;;2.00;100.00;97511.47;7425064;19;20391;-52
2022/02/21 04:07:52;;;;;;;21.50;2.83;;;;;;;2.13;100.00;97507.56;7420513;19;20425;-50
2022/02/21 04:10:21;;;;;;;26.17;3.63;;;;;;;2.18;100.00;97500.00;7421240;19;20406;-52
2022/02/21 04:12:49;;;;;;;12.70;3.20;;;;;;;2.31;100.00;97513.91;7417689;19;20415;-49
2022/02/21 04:15:17;;;;;;;12.53;3.13;;;;;;;2.37;100.00;97505.53;7418998;19;20379;-50
2022/02/21 04:17:53;;;;;;;23.73;4.00;;;;;;;2.39;100.00;97483.50;7411992;19;20433;-49
2022/02/21 04:25:26;;;;;;;11.67;2.10;;;;;;;2.36;100.00;97478.38;7427629;19;20430;-52
2022/02/21 04:27:56;;;;;;;15.37;2.90;;;;;;;2.38;100.00;97479.25;7418943;19;20405;-51
2022/02/21 04:30:25;;;;;;;27.77;2.00;;;;;;;2.37;100.00;97467.34;7425058;19;21280;-50
2022/02/21 04:32:54;;;;;;;17.90;3.40;;;;;;;2.39;100.00;97470.78;7421589;19;20423;-50
2022/02/21 04:35:24;;;;;;;14.13;3.07;;;;;;;2.38;100.00;97469.06;7421507;19;20410;-50
2022/02/21 04:37:53;;;;;;;14.13;2.43;;;;;;;2.41;100.00;97466.59;7415402;19;20397;-52
2022/02/21 04:40:23;;;;;;;14.63;3.77;;;;;;;2.35;100.00;97410.50;7413330;19;20949;-54
2022/02/21 04:47:57;;;;;;;7.43;2.40;;;;;;;2.05;100.00;97519.19;7420672;19;20512;-53
2022/02/21 04:50:25;;;;;;;20.17;2.93;;;;;;;1.93;100.00;97504.53;7423968;19;20431;-51
2022/02/21 04:52:53;;;;;;;17.83;1.70;;;;;;;1.81;100.00;97522.91;7420333;19;20410;-49
2022/02/21 04:55:21;;;;;;;4.83;1.50;;;;;;;1.73;100.00;97545.56;7423516;19;20375;-51
2022/02/21 04:57:49;;;;;;;17.37;2.40;;;;;;;1.66;100.00;97579.28;7418687;19;20409;-53
2022/02/21 05:00:18;;;;;;;8.50;1.20;;;;;;;1.65;100.00;97605.53;7419194;19;20933;-51
2022/02/21 05:02:46;;;;;;;10.77;1.87;;;;;;;1.61;100.00;97639.31;7415233;19;20402;-53
2022/02/21 05:09:07;;;;;;;7.63;1.77;;;;;;;1.72;100.00;97682.81;7422895;19;20490;-51
2022/02/21 05:11:36;;;;;;;9.40;1.50;;;;;;;1.75;100.00;97676.13;7425767;19;20379;-48
2022/02/21 05:14:04;;;;;;;13.50;2.23;;;;;;;1.80;100.00;97688.09;7423290;19;20439;-51
2022/02/21 05:16:32;;;;;;;17.40;2.33;;;;;;;1.87;100.00;97679.81;7424037;19;20925;-49
2022/02/21 05:19:02;;;;;;;4.80;1.27;;;;;;;1.84;100.00;97672.13;7419019;19;20420;-52
2022/02/21 05:21:30;;;;;;;8.90;1.63;;;;;;;1.83;100.00;97670.38;7420925;19;20752;-53
2022/02/21 05:23:59;;;;;;;10.97;3.13;;;;;;;1.79;100.00;97668.59;7415038;19;20439;-54
2022/02/21 05:26:29;;;;;;;19.70;2.70;;;;;;;1.79;100.00;97691.47;7416111;19;20371;-49
2022/02/21 05:34:02;;;;;;;33.37;2.00;;;;;;;1.69;100.00;97667.47;7422880;19;20478;-53
2022/02/21 05:36:31;;;;;;;13.63;2.10;;;;;;;1.67;100.00;97669.97;7425995;19;20387;-50
2022/02/21 05:38:59;;;;;;;10.53;1.97;;;;;;;1.66;100.00;97632.66;7421277;19;20392;-47
2022/02/21 05:41:27;;;;;;;3.43;1.07;;;;;;;1.72;100.00;97655.72;7421529;19;20404;-49
2022/02/21 05:44:00;;;;;;;6.70;1.43;;;;;;;1.74;100.00;97651.53;7418139;19;20407;-54
2022/02/21 05:46:29;;;;;;;18.27;3.10;;;;;;;1.79;100.00;97669.44;7421913;19;20394;-52
2022/02/21 05:48:57;;;;;;;11.70;1.67;;;;;;;1.83;100.00;97657.66;7414954;19;20745;-50
2022/02/21 05:51:28;;;;;;;15.10;2.13;;;;;;;1.82;100.00;97643.22;7412433;19;20414;-54
2022/02/21 05:59:00;;;;;;;18.20;2.10;;;;;;;1.84;100.00;97672.13;7423711;19;20487;-52
2022/02/21 06:01:29;;;;;;;7.93;1.37;;;;;;;1.87;100.00;97695.06;7422799;19;20476;-52
2022/02/21 06:03:57;;;;;;;20.43;3.80;;;;;;;1.85;100.00;97699.28;7420856;19;20406;-52
2022/02/21 06:06:25;;;;;;;9.07;1.20;;;;;;;1.88;100.00;97722.22;7424058;19;20375;-51
2022/02/21 06:08:53;;;;;;;12.07;2.17;;;;;;;1.84;100.00;97705.19;7416493;19;20414;-50
2022/02/21 06:11:21;;;;;;;9.83;1.50;;;;;;;1.74;100.00;97732.88;7418348;19;20936;-48
2022/02/21 06:13:49;;;;;;;11.00;2.63;;;;;;;1.68;100.00;97732.69;7414260;19;20402;-51
2022/02/21 06:18:58;;;;;;;7.27;1.57;;;;;;;1.59;100.00;97735.00;7421980;19;20485;-47
2022/02/21 06:21:28;;;;;;;11.03;2.43;;;;;;;1.58;100.00;97751.03;7423168;19;20421;-53
2022/02/21 06:23:56;;;;;;;21.10;2.60;;;;;;;1.60;100.00;97768.06;7422124;19;20439;-50
2022/02/21 06:26:25;;;;;;;6.23;1.83;;;;;;;1.63;100.00;97763.91;7423440;19;20935;-53
2022/02/21 06:28:53;;;;;;;7.43;1.80;;;;;;;1.60;100.00;97762.97;7421689;19;20441;-52
2022/02/21 06:31:21;;;;;;;7.07;1.17;;;;;;;1.57;100.00;97777.25;7418153;19;20426;-51
2022/02/21 06:33:49;;;;;;;14.33;1.53;;;;;;;1.38;100.00;97758.91;7414173;19;20222;-56
2022/02/21 06:39:00;;;;;;;20.37;2.63;;;;;;;1.40;100.00;97719.19;7424430;19;20513;-49
2022/02/21 06:41:28;;;;;;;17.93;1.53;;;;;;;1.40;100.00;97739.53;7422569;19;20478;-48
2022/02/21 06:43:56;;;;;;;15.63;2.10;;;;;;;1.40;100.00;97726.81;7421563;19;20417;-49
2022/02/21 06:46:24;;;;;;;14.40;2.50;;;;;;;1.41;100.00;97732.75;7424041;19;20383;-54
2022/02/21 06:48:53;;;;;;;17.23;2.90;;;;;;;1.53;100.00;97722.09;7418982;19;20665;-53
2022/02/21 06:51:22;;;;;;;7.40;1.93;;;;;;;1.56;100.00;97723.06;7418323;19;20767;-51
2022/02/21 06:53:50;;;;;;;13.83;2.40;;;;;;;1.51;100.00;97718.63;7417904;19;20820;-50
2022/02/21 06:56:21;;;;;;;16.27;1.73;;;;;;;1.53;100.00;97732.25;7415978;19;20889;-50
2022/02/21 07:03:54;;;;;;;8.73;1.67;;;;;;;1.60;100.00;97718.91;7419327;19;20482;-55
2022/02/21 07:06:23;;;;;;;6.72;1.23;;;;;;;1.64;100.00;97723.25;7425275;19;20383;-50
2022/02/21 07:08:52;;;;;;;12.27;1.70;;;;;;;1.66;100.00;97723.31;7421686;19;20186;-50
2022/02/21 07:11:20;;;;;;;13.83;2.90;;;;;;;1.64;100.00;97735.97;7423817;19;20563;-49
2022/02/21 07:13:51;;;;;;;18.80;2.90;;;;;;;1.56;100.00;97747.59;7420796;19;20417;-51
2022/02/21 07:16:20;;;;;;;18.77;3.10;;;;;;;1.63;100.00;97726.59;7421118;19;20391;-50
2022/02/21 07:18:48;;;;;;;11.33;2.67;;;;;;;1.57;100.00;97744.22;7414218;19;20404;-48
2022/02/21 07:23:55;;;;;;;12.10;2.80;;;;;;;1.43;100.00;97742.13;7422444;19;20489;-52
2022/02/21 07:26:25;;;;;;;13.13;2.40;;;;;;;1.42;100.00;97758.22;7425843;19;20401;-51
2022/02/21 07:28:53;;;;;;;8.97;1.93;;;;;;;1.47;100.00;97754.13;7421246;19;20410;-53
2022/02/21 07:31:21;;;;;;;8.95;1.80;;;;;;;1.50;100.00;97760.13;7423789;19;20414;-52
2022/02/21 07:33:50;;;;;;;18.23;2.30;;;;;;;1.52;100.00;97768.63;7418013;19;20185;-51
2022/02/21 07:36:18;;;;;;;6.80;1.87;;;;;;;1.59;100.00;97773.09;7420120;19;20391;-50
2022/02/21 07:38:46;;;;;;;5.40;1.23;;;;;;;1.60;100.00;97769.75;7414206;19;20437;-50
2022/02/21 07:43:54;;;;;;;8.07;0.90;;;;;;;1.64;100.00;97794.41;7424795;19;20509;-51
2022/02/21 07:46:22;;;;;;;8.00;1.40;;;;;;;1.55;100.00;97763.66;7429330;19;20394;-49
2022/02/21 07:48:50;;;;;;;5.32;1.20;;;;;;;1.47;100.00;97749.06;7425131;19;21271;-53
2022/02/21 07:51:19;;;;;;;7.32;1.85;;;;;;;1.47;100.00;97738.00;7423044;19;20172;-52
2022/02/21 07:53:47;;;;;;;9.63;1.50;;;;;;;1.42;100.00;97742.09;7417112;19;20193;-52
2022/02/21 08:10:13;;;;;;;8.67;1.43;;;;;;;0.64;100.00;97760.88;7234811;19;3696161;-53
2022/02/21 08:12:42;;;;;;;8.57;1.63;;;;;;;0.30;100.00;97776.63;7424813;19;20190;-54
2022/02/21 08:15:12;;;;;;;1.80;0.70;;;;;;;0.07;100.00;97752.19;7425873;19;20168;-50
2022/02/21 08:17:42;;;;;;;6.20;0.88;;;;;;;-0.13;100.00;97741.31;7424164;19;20186;-52
2022/02/21 08:20:15;;;;;;;11.27;1.17;;;;;;;-0.48;100.00;97741.75;7427683;19;20134;-52
2022/02/21 08:22:45;;;;;;;5.05;1.25;;;;;;;-0.68;100.00;97729.22;7424694;19;20200;-49
2022/02/21 08:25:17;;;;;;;1.45;0.80;;;;;;;-0.79;100.00;97717.81;7425445;19;20221;-53
2022/02/21 08:27:48;;;;;;;3.28;0.85;;;;;;;-0.82;100.00;97712.66;7425459;19;20198;-49
2022/02/21 08:30:19;;;;;;;1.55;0.70;;;;;;;-0.85;100.00;97702.38;7426717;19;20593;-50
2022/02/21 08:32:50;;;;;;;6.25;1.25;;;;;;;-0.81;100.00;97696.63;7424842;19;20197;-48
2022/02/21 08:35:20;;;;;;;10.85;1.05;;;;;;;-0.75;100.00;97708.66;7427925;19;20119;-52
2022/02/21 08:37:49;;;;;;;2.38;1.05;;;;;;;-0.74;100.00;97867.38;7423769;19;20196;-50
2022/02/21 08:40:22;;;;;;;4.50;0.75;;;;;;;-0.72;100.00;97881.84;7431088;19;20126;-48
2022/02/21 08:42:52;;;;;;;7.95;0.70;;;;;;;-0.83;100.00;97898.25;7423783;19;20190;-53
2022/02/21 08:45:22;;;;;;;5.97;1.27;;;;;;;-1.00;100.00;97895.91;7431333;19;20137;-49
2022/02/21 08:47:51;;;;;;;3.80;1.00;;;;;;;-1.04;100.00;97903.31;7426492;19;20200;-52
2022/02/21 08:50:21;;;;;;;9.15;1.25;;;;;;;-1.09;100.00;97914.09;7427227;19;20135;-48
2022/02/21 08:52:51;;;;;;;20.70;1.75;;;;;;;-1.12;100.00;97933.34;7425420;19;20190;-48
2022/02/21 08:55:23;;;;;;;4.60;1.45;;;;;;;-1.10;100.00;97936.81;7427177;19;20133;-53
2022/02/21 08:57:52;;;;;;;10.18;1.58;;;;;;;-0.97;100.00;97959.31;7422123;19;20189;-49
2022/02/21 09:00:22;;;;;;;4.53;2.33;;;;;;;-1.00;100.00;97961.72;7430429;19;20253;-47
2022/02/21 09:02:51;;;;;;;5.32;1.20;;;;;;;-1.04;100.00;97949.72;7426406;19;20190;-48
2022/02/21 09:05:34;;;;;;;6.35;1.55;;;;;;;-1.04;100.00;97944.66;7427052;19;20535;-52
2022/02/21 09:08:04;;;;;;;6.43;2.20;;;;;;;-0.75;100.00;97966.94;7421228;19;20190;-51
2022/02/21 09:10:36;;;;;;;6.30;1.20;;;;;;;-0.87;100.00;97958.03;7407801;19;20141;-49
2022/02/21 09:13:06;;;;;;;23.10;9.15;;;;;;;-0.69;100.00;97955.41;7393782;19;20186;-49
2022/02/21 09:15:36;;;;;;;25.38;10.13;;;;;;;-0.52;100.00;97947.63;7396767;19;20133;-47
2022/02/21 09:18:06;;;;;;;7.00;1.90;;;;;;;-0.72;100.00;97941.75;7395110;19;20202;-47
2022/02/21 09:20:36;;;;;;;7.85;2.95;;;;;;;-0.78;100.00;97942.34;7396750;19;20127;-47
2022/02/21 09:23:05;;;;;;;7.18;2.47;;;;;;;-0.81;100.00;97939.72;7393438;19;20194;-50
2022/02/21 09:25:42;;;;;;;8.00;2.83;;;;;;;-0.74;100.00;97953.47;7397251;19;20145;-48
2022/02/21 09:28:12;;;;;;;6.70;2.10;;;;;;;-0.75;100.00;97954.28;7392356;19;20202;-48
2022/02/21 09:30:42;;;;;;;14.07;3.33;;;;;;;-0.77;100.00;97951.69;7396800;19;20131;-49
2022/02/21 09:33:11;;;;;;;9.50;2.75;;;;;;;-0.73;100.00;97958.63;7393143;19;20532;-48
2022/02/21 09:35:41;;;;;;;8.43;2.45;;;;;;;-0.66;100.00;97957.22;7396477;19;20127;-49
2022/02/21 09:38:10;;;;;;;5.30;1.45;;;;;;;-0.62;100.00;97959.06;7392145;19;20209;-52
2022/02/21 09:40:42;;;;;;;11.00;3.15;;;;;;;-0.55;100.00;97943.28;7397856;19;20135;-50
2022/02/21 09:43:15;;;;;;;14.93;3.25;;;;;;;-0.34;100.00;97937.38;7391909;19;20526;-49
2022/02/21 09:45:44;;;;;;;19.75;3.70;;;;;;;-0.33;100.00;97934.03;7396087;19;20127;-49
2022/02/21 09:48:16;;;;;;;12.10;3.25;;;;;;;-0.19;100.00;97944.75;7391688;19;20190;-49
2022/02/21 09:50:50;;;;;;;12.07;3.35;;;;;;;-0.04;100.00;97923.31;7400349;19;20158;-48
2022/02/21 09:53:20;;;;;;;8.73;1.35;;;;;;;0.16;100.00;97934.22;7391609;19;20216;-49
2022/02/21 09:55:52;;;;;;;19.55;3.08;;;;;;;0.33;100.00;97929.78;7396003;19;20131;-47
2022/02/21 09:58:22;;;;;;;9.85;2.35;;;;;;;0.49;100.00;97935.41;7388351;19;20190;-48
2022/02/21 10:00:52;;;;;;;17.17;2.85;;;;;;;0.62;100.00;97927.44;7396139;19;20608;-47
2022/02/21 10:03:43;;;;;;;4.85;1.98;;;;;;;0.80;100.00;97933.97;7387746;19;20190;-51
2022/02/21 10:06:17;;;;;;;15.30;3.05;;;;;;;0.92;100.00;97931.03;7395338;19;20127;-51
2022/02/21 10:09:07;;;;;;;15.68;3.40;;;;;;;1.09;100.00;97939.22;7391227;19;20194;-47
2022/02/21 10:11:42;;;;;;;22.27;2.97;;;;;;;1.20;100.00;97942.13;7395157;19;20123;-51
2022/02/21 10:14:13;;;;;;;19.02;2.63;;;;;;;1.34;100.00;97932.44;7390140;19;20199;-53
2022/02/21 10:16:46;;;;;;;5.72;2.53;;;;;;;1.43;100.00;97935.25;7396362;19;20135;-52
2022/02/21 10:19:20;;;;;;;17.48;2.38;;;;;;;1.54;100.00;97916.97;7392100;19;20521;-53
2022/02/21 10:22:06;;;;;;;7.75;1.55;;;;;;;1.66;100.00;97907.19;7393955;19;20187;-53
2022/02/21 10:24:44;;;;;;;48.07;8.90;;;;;;;1.78;100.00;97886.38;7392419;19;20262;-49
2022/02/21 10:27:18;;;;;;;27.63;3.30;;;;;;;1.80;100.00;97878.78;7389224;19;20421;-53
2022/02/21 10:29:49;;;;;;;16.93;2.67;;;;;;;1.80;100.00;97866.91;7395869;19;20365;-50
2022/02/21 10:32:20;;;;;;;14.20;2.70;;;;;;;1.90;100.00;97850.28;7390735;19;21039;-50
2022/02/21 10:34:50;;;;;;;12.17;1.83;;;;;;;1.94;100.00;97847.00;7394089;19;20407;-50
2022/02/21 10:37:22;;;;;;;20.00;3.47;;;;;;;2.00;100.00;97826.00;7392296;19;20411;-51
2022/02/21 10:39:52;;;;;;;9.53;1.70;;;;;;;2.07;100.00;97827.00;7394146;19;20391;-50
2022/02/21 10:42:32;;;;;;;14.80;2.77;;;;;;;2.21;100.00;97829.97;7390187;19;20434;-48
2022/02/21 10:45:11;;;;;;;10.43;2.17;;;;;;;2.24;100.00;97808.00;7393800;19;20433;-53
2022/02/21 10:47:40;;;;;;;8.73;2.17;;;;;;;2.28;100.00;97804.75;7391786;19;20978;-48
2022/02/21 10:50:11;;;;;;;23.77;2.47;;;;;;;2.30;100.00;97802.22;7393254;19;21066;-56
2022/02/21 10:52:41;;;;;;;8.57;1.23;;;;;;;2.37;100.00;97795.63;7392846;19;20425;-51
2022/02/21 10:55:14;;;;;;;11.47;1.67;;;;;;;2.42;100.00;97794.91;7397483;19;20822;-52
2022/02/21 10:57:47;;;;;;;15.23;2.20;;;;;;;2.45;100.00;97786.50;7390404;19;20786;-51
2022/02/21 11:00:17;;;;;;;20.77;2.20;;;;;;;2.47;100.00;97792.50;7392997;19;20392;-50
2022/02/21 11:02:47;;;;;;;3.50;1.23;;;;;;;2.47;100.00;97782.34;7391942;19;20425;-52
2022/02/21 11:05:16;;;;;;;12.63;2.10;;;;;;;2.46;100.00;97784.84;7392786;19;20419;-50
2022/02/21 11:07:47;;;;;;;11.20;2.10;;;;;;;2.45;100.00;97783.09;7393561;19;20425;-51
2022/02/21 11:10:17;;;;;;;8.27;2.20;;;;;;;2.45;100.00;97791.59;7393477;19;20761;-55
2022/02/21 11:12:50;;;;;;;11.97;1.63;;;;;;;2.34;100.00;97790.44;7390744;19;20482;-50
2022/02/21 11:15:20;;;;;;;7.13;1.73;;;;;;;2.28;100.00;97799.66;7394253;19;20392;-52
2022/02/21 11:17:50;;;;;;;6.97;1.43;;;;;;;2.24;100.00;97802.03;7391232;19;20445;-54
2022/02/21 11:20:19;;;;;;;5.33;1.30;;;;;;;2.23;100.00;97805.41;7391728;19;20404;-52
2022/02/21 11:22:49;;;;;;;8.70;1.57;;;;;;;2.24;100.00;97805.47;7393293;19;21040;-53
2022/02/21 11:25:30;;;;;;;10.03;1.90;;;;;;;2.25;100.00;97804.63;7397260;19;20380;-53
2022/02/21 11:28:09;;;;;;;8.67;1.80;;;;;;;2.21;100.00;97805.38;7390549;19;20450;-53
2022/02/21 11:30:40;;;;;;;8.93;2.63;;;;;;;2.20;100.00;97803.66;7395584;19;20469;-47
2022/02/21 11:33:12;;;;;;;9.57;2.30;;;;;;;2.18;100.00;97810.38;7392207;19;20789;-52
2022/02/21 11:36:05;;;;;;;11.00;2.63;;;;;;;2.19;100.00;97801.94;7397469;19;20391;-48
2022/02/21 11:38:36;;;;;;;14.20;2.23;;;;;;;2.15;100.00;97792.47;7391678;19;20438;-51
2022/02/21 11:41:07;;;;;;;3.40;1.43;;;;;;;2.21;100.00;97800.28;7395699;19;20399;-55
2022/02/21 11:43:39;;;;;;;12.03;2.83;;;;;;;2.11;100.00;97795.78;7390840;19;20757;-53
2022/02/21 11:46:10;;;;;;;15.57;3.43;;;;;;;2.10;100.00;97799.13;7397183;19;20408;-55
2022/02/21 11:49:01;;;;;;;4.60;1.70;;;;;;;2.14;100.00;97798.38;7390752;19;21036;-52
2022/02/21 11:51:39;;;;;;;23.57;3.57;;;;;;;2.12;100.00;97795.81;7397095;19;20470;-49
2022/02/21 11:54:38;;;;;;;8.53;2.07;;;;;;;2.12;100.00;97810.22;7391679;19;20436;-51
2022/02/21 11:57:10;;;;;;;15.93;2.30;;;;;;;2.11;100.00;97813.56;7391257;19;20392;-53
2022/02/21 11:59:39;;;;;;;15.90;2.30;;;;;;;2.10;100.00;97822.03;7395187;19;20463;-52
2022/02/21 12:02:12;;;;;;;7.80;1.90;;;;;;;2.12;100.00;97826.34;7391425;19;20422;-55
2022/02/21 12:04:56;;;;;;;9.87;2.00;;;;;;;2.08;100.00;97833.81;7394979;19;20793;-53
2022/02/21 12:07:31;;;;;;;9.13;2.23;;;;;;;2.06;100.00;97828.72;7392518;19;20429;-53
2022/02/21 12:10:24;;;;;;;8.50;1.70;;;;;;;2.00;100.00;97837.00;7395997;19;20407;-52
2022/02/21 12:12:57;;;;;;;10.83;2.70;;;;;;;1.98;100.00;97827.59;7392545;19;20253;-54
2022/02/21 12:15:29;;;;;;;3.20;1.13;;;;;;;1.88;100.00;97837.53;7395085;19;20482;-52
2022/02/21 12:18:32;;;;;;;21.33;2.75;;;;;;;1.83;100.00;97839.06;7391124;19;20445;-49
2022/02/21 12:21:10;;;;;;;4.27;1.70;;;;;;;1.75;100.00;97846.44;7393961;19;20141;-51
2022/02/21 12:24:06;;;;;;;3.10;2.00;;;;;;;1.73;100.00;97850.63;7392166;19;20450;-52
2022/02/21 12:26:37;;;;;;;4.10;1.30;;;;;;;1.72;100.00;97846.38;7395642;19;20387;-55
2022/02/21 12:29:15;;;;;;;8.87;1.57;;;;;;;1.75;100.00;97846.44;7390919;19;20800;-54
2022/02/21 12:31:46;;;;;;;4.70;1.93;;;;;;;1.75;100.00;97851.53;7395762;19;20389;-50
2022/02/21 12:34:16;;;;;;;9.85;1.75;;;;;;;1.77;100.00;97853.25;7389225;19;20449;-51
2022/02/21 12:36:48;;;;;;;12.80;1.63;;;;;;;1.74;100.00;97859.97;7395264;19;20131;-53
2022/02/21 12:39:23;;;;;;;2.70;0.97;;;;;;;1.73;100.00;97853.19;7392327;19;20438;-51
2022/02/21 12:41:54;;;;;;;5.70;1.67;;;;;;;1.75;100.00;97861.72;7390981;19;20434;-56
2022/02/21 12:44:24;;;;;;;2.95;1.17;;;;;;;1.69;100.00;97866.59;7393995;19;20760;-51
2022/02/21 12:47:00;;;;;;;5.37;1.20;;;;;;;1.63;100.00;97861.31;7395770;19;20488;-54
2022/02/21 12:49:32;;;;;;;4.40;1.33;;;;;;;1.61;100.00;97863.84;7401105;19;20379;-50
2022/02/21 12:52:06;;;;;;;5.00;1.15;;;;;;;1.63;100.00;97866.41;7394584;19;20131;-48
2022/02/21 12:54:40;;;;;;;1.90;0.77;;;;;;;1.62;100.00;97874.84;7399819;19;20169;-53
2022/02/21 12:57:09;;;;;;;7.53;1.87;;;;;;;1.67;100.00;97865.69;7399173;19;20394;-50
2022/02/21 12:59:46;;;;;;;2.73;1.20;;;;;;;1.65;100.00;97871.56;7402053;19;20383;-50
2022/02/21 13:02:15;;;;;;;4.18;0.95;;;;;;;1.67;100.00;97883.50;7394663;19;20415;-49
2022/02/21 13:04:45;;;;;;;4.30;1.10;;;;;;;1.67;100.00;97893.66;7399844;19;20170;-52
2022/02/21 13:07:15;;;;;;;4.67;0.90;;;;;;;1.66;100.00;97897.03;7398407;19;20414;-52
2022/02/21 13:09:48;;;;;;;10.73;1.63;;;;;;;1.58;100.00;97898.44;7401694;19;20374;-53
2022/02/21 13:12:19;;;;;;;3.20;1.17;;;;;;;1.58;100.00;97903.53;7397533;19;20411;-54
2022/02/21 13:14:53;;;;;;;1.60;0.93;;;;;;;1.64;100.00;97913.03;7395844;19;20422;-52
2022/02/21 13:17:23;;;;;;;1.97;0.83;;;;;;;1.57;100.00;97917.06;7393563;19;20961;-50